sensor_id;sensor_type;location;lat;lon;timestamp;temperature;humidity
35603;DHT22;21725;50.836;4.368;2023-12-28T00:01:01;12.20;99.90
35603;DHT22;21725;50.836;4.368;2023-12-28T00:04:01;12.20;99.90
35603;DHT22;21725;50.836;4.368;2023-12-28T00:07:03;12.30;99.90
35603;DHT22;21725;50.836;4.368;2023-12-28T00:10:04;12.50;99.90
35603;DHT22;21725;50.836;4.368;2023-12-28T00:13:05;12.60;99.90
35603;DHT22;21725;50.836;4.368;2023-12-28T00:16:06;12.60;99.90
35603;DHT22;21725;50.836;4.368;2023-12-28T00:19:06;12.60;99.90
35603;DHT22;21725;50.836;4.368;2023-12-28T00:22:07;12.60;99.90
35603;DHT22;21725;50.836;4.368;2023-12-28T00:25:08;12.60;99.90
35603;DHT22;21725;50.836;4.368;2023-12-28T00:28:09;12.60;99.90
35603;DHT22;21725;50.836;4.368;2023-12-28T00:31:09;12.60;99.90
35603;DHT22;21725;50.836;4.368;2023-12-28T00:34:10;12.40;99.90
35603;DHT22;21725;50.836;4.368;2023-12-28T00:37:11;12.40;99.90
35603;DHT22;21725;50.836;4.368;2023-12-28T00:40:12;12.50;99.90
35603;DHT22;21725;50.836;4.368;2023-12-28T00:43:12;12.50;99.90
35603;DHT22;21725;50.836;4.368;2023-12-28T00:46:13;12.60;99.90
35603;DHT22;21725;50.836;4.368;2023-12-28T00:49:14;12.60;99.90
35603;DHT22;21725;50.836;4.368;2023-12-28T00:52:14;12.50;99.90
35603;DHT22;21725;50.836;4.368;2023-12-28T00:55:15;12.60;99.90
35603;DHT22;21725;50.836;4.368;2023-12-28T00:58:16;12.50;99.90
35603;DHT22;21725;50.836;4.368;2023-12-28T01:01:16;12.50;99.90
35603;DHT22;21725;50.836;4.368;2023-12-28T01:04:17;12.40;99.90
35603;DHT22;21725;50.836;4.368;2023-12-28T01:07:19;12.30;99.90
35603;DHT22;21725;50.836;4.368;2023-12-28T01:10:20;12.30;99.90
35603;DHT22;21725;50.836;4.368;2023-12-28T01:13:21;12.10;99.90
35603;DHT22;21725;50.836;4.368;2023-12-28T01:16:22;12.20;99.90
35603;DHT22;21725;50.836;4.368;2023-12-28T01:19:22;12.30;99.90
35603;DHT22;21725;50.836;4.368;2023-12-28T01:22:23;12.40;99.90
35603;DHT22;21725;50.836;4.368;2023-12-28T01:25:24;12.30;99.90
35603;DHT22;21725;50.836;4.368;2023-12-28T01:28:25;12.20;99.90
35603;DHT22;21725;50.836;4.368;2023-12-28T01:31:26;12.30;99.90
35603;DHT22;21725;50.836;4.368;2023-12-28T01:34:26;12.40;99.90
35603;DHT22;21725;50.836;4.368;2023-12-28T01:37:27;12.30;99.90
35603;DHT22;21725;50.836;4.368;2023-12-28T01:40:31;12.40;99.90
35603;DHT22;21725;50.836;4.368;2023-12-28T01:43:31;12.40;99.90
35603;DHT22;21725;50.836;4.368;2023-12-28T01:46:33;12.40;99.90
35603;DHT22;21725;50.836;4.368;2023-12-28T01:49:35;12.30;99.90
35603;DHT22;21725;50.836;4.368;2023-12-28T01:52:36;12.20;99.90
35603;DHT22;21725;50.836;4.368;2023-12-28T01:55:37;12.20;99.90
35603;DHT22;21725;50.836;4.368;2023-12-28T01:58:40;12.30;99.90
35603;DHT22;21725;50.836;4.368;2023-12-28T02:01:42;12.40;99.90
35603;DHT22;21725;50.836;4.368;2023-12-28T02:04:43;12.30;99.90
35603;DHT22;21725;50.836;4.368;2023-12-28T02:07:44;12.20;99.90
35603;DHT22;21725;50.836;4.368;2023-12-28T02:10:45;12.30;99.90
35603;DHT22;21725;50.836;4.368;2023-12-28T02:13:46;12.30;99.90
35603;DHT22;21725;50.836;4.368;2023-12-28T02:17:00;12.40;99.90
35603;DHT22;21725;50.836;4.368;2023-12-28T02:20:03;12.40;99.90
35603;DHT22;21725;50.836;4.368;2023-12-28T02:23:07;12.40;99.90
35603;DHT22;21725;50.836;4.368;2023-12-28T02:26:09;12.40;99.90
35603;DHT22;21725;50.836;4.368;2023-12-28T02:29:10;12.40;99.90
35603;DHT22;21725;50.836;4.368;2023-12-28T02:32:12;12.40;99.90
35603;DHT22;21725;50.836;4.368;2023-12-28T02:35:32;12.60;99.90
35603;DHT22;21725;50.836;4.368;2023-12-28T02:38:36;12.70;99.90
35603;DHT22;21725;50.836;4.368;2023-12-28T02:41:37;12.70;99.90
35603;DHT22;21725;50.836;4.368;2023-12-28T02:44:38;12.80;99.90
35603;DHT22;21725;50.836;4.368;2023-12-28T02:47:39;12.70;99.90
35603;DHT22;21725;50.836;4.368;2023-12-28T02:50:39;12.60;99.90
35603;DHT22;21725;50.836;4.368;2023-12-28T02:53:40;12.60;99.90
35603;DHT22;21725;50.836;4.368;2023-12-28T02:56:41;12.50;99.90
35603;DHT22;21725;50.836;4.368;2023-12-28T02:59:41;12.30;99.90
35603;DHT22;21725;50.836;4.368;2023-12-28T03:02:42;12.40;99.90
35603;DHT22;21725;50.836;4.368;2023-12-28T03:05:43;12.40;99.90
35603;DHT22;21725;50.836;4.368;2023-12-28T03:08:44;12.40;99.90
35603;DHT22;21725;50.836;4.368;2023-12-28T03:11:44;12.30;99.90
35603;DHT22;21725;50.836;4.368;2023-12-28T03:14:45;12.30;99.90
35603;DHT22;21725;50.836;4.368;2023-12-28T03:17:46;12.30;99.90
35603;DHT22;21725;50.836;4.368;2023-12-28T03:20:47;12.40;99.90
35603;DHT22;21725;50.836;4.368;2023-12-28T03:23:47;12.40;99.90
35603;DHT22;21725;50.836;4.368;2023-12-28T03:26:48;12.50;99.90
35603;DHT22;21725;50.836;4.368;2023-12-28T03:29:49;12.50;99.90
35603;DHT22;21725;50.836;4.368;2023-12-28T03:32:49;12.40;99.90
35603;DHT22;21725;50.836;4.368;2023-12-28T03:35:50;12.40;99.90
35603;DHT22;21725;50.836;4.368;2023-12-28T03:38:52;12.30;99.90
35603;DHT22;21725;50.836;4.368;2023-12-28T03:41:52;12.40;99.90
35603;DHT22;21725;50.836;4.368;2023-12-28T03:44:53;12.50;99.90
35603;DHT22;21725;50.836;4.368;2023-12-28T03:47:54;12.50;99.90
35603;DHT22;21725;50.836;4.368;2023-12-28T03:50:55;12.40;99.90
35603;DHT22;21725;50.836;4.368;2023-12-28T03:53:55;12.40;99.90
35603;DHT22;21725;50.836;4.368;2023-12-28T03:56:56;12.40;99.90
35603;DHT22;21725;50.836;4.368;2023-12-28T03:59:58;12.50;99.90
35603;DHT22;21725;50.836;4.368;2023-12-28T04:02:59;12.50;99.90
35603;DHT22;21725;50.836;4.368;2023-12-28T04:06:00;12.50;99.90
35603;DHT22;21725;50.836;4.368;2023-12-28T04:09:01;12.60;99.90
35603;DHT22;21725;50.836;4.368;2023-12-28T04:12:02;12.60;99.90
35603;DHT22;21725;50.836;4.368;2023-12-28T04:15:03;12.50;99.90
35603;DHT22;21725;50.836;4.368;2023-12-28T04:18:04;12.50;99.90
35603;DHT22;21725;50.836;4.368;2023-12-28T04:21:10;12.50;99.90
35603;DHT22;21725;50.836;4.368;2023-12-28T04:24:11;12.40;99.90
35603;DHT22;21725;50.836;4.368;2023-12-28T04:27:11;12.30;99.90
35603;DHT22;21725;50.836;4.368;2023-12-28T04:30:13;12.20;99.90
35603;DHT22;21725;50.836;4.368;2023-12-28T04:33:17;12.30;99.90
35603;DHT22;21725;50.836;4.368;2023-12-28T04:36:18;12.20;99.90
35603;DHT22;21725;50.836;4.368;2023-12-28T04:39:18;12.20;99.90
35603;DHT22;21725;50.836;4.368;2023-12-28T04:42:19;12.20;99.90
35603;DHT22;21725;50.836;4.368;2023-12-28T04:45:20;12.30;99.90
35603;DHT22;21725;50.836;4.368;2023-12-28T04:48:22;12.30;99.90
35603;DHT22;21725;50.836;4.368;2023-12-28T04:51:26;12.20;99.90
35603;DHT22;21725;50.836;4.368;2023-12-28T04:54:27;12.20;99.90
35603;DHT22;21725;50.836;4.368;2023-12-28T04:57:28;12.20;99.90
35603;DHT22;21725;50.836;4.368;2023-12-28T05:00:28;12.20;99.90
35603;DHT22;21725;50.836;4.368;2023-12-28T05:03:29;12.20;99.90
35603;DHT22;21725;50.836;4.368;2023-12-28T05:06:30;12.20;99.90
35603;DHT22;21725;50.836;4.368;2023-12-28T05:09:30;12.20;99.90
35603;DHT22;21725;50.836;4.368;2023-12-28T05:12:31;12.10;99.90
35603;DHT22;21725;50.836;4.368;2023-12-28T05:15:32;12.10;99.90
35603;DHT22;21725;50.836;4.368;2023-12-28T05:18:33;12.00;99.90
35603;DHT22;21725;50.836;4.368;2023-12-28T05:21:33;12.10;99.90
35603;DHT22;21725;50.836;4.368;2023-12-28T05:24:34;12.10;99.90
35603;DHT22;21725;50.836;4.368;2023-12-28T05:27:35;12.00;99.90
35603;DHT22;21725;50.836;4.368;2023-12-28T05:30:35;12.10;99.90
35603;DHT22;21725;50.836;4.368;2023-12-28T05:33:36;12.10;99.90
35603;DHT22;21725;50.836;4.368;2023-12-28T05:36:37;12.20;99.90
35603;DHT22;21725;50.836;4.368;2023-12-28T05:39:37;12.30;99.90
35603;DHT22;21725;50.836;4.368;2023-12-28T05:42:38;12.30;99.90
35603;DHT22;21725;50.836;4.368;2023-12-28T05:45:39;12.30;99.90
35603;DHT22;21725;50.836;4.368;2023-12-28T05:48:40;12.00;99.90
35603;DHT22;21725;50.836;4.368;2023-12-28T05:51:41;12.00;99.90
35603;DHT22;21725;50.836;4.368;2023-12-28T05:54:42;12.20;99.90
35603;DHT22;21725;50.836;4.368;2023-12-28T05:57:43;12.20;99.90
35603;DHT22;21725;50.836;4.368;2023-12-28T06:00:44;12.30;99.90
35603;DHT22;21725;50.836;4.368;2023-12-28T06:03:48;12.30;99.90
35603;DHT22;21725;50.836;4.368;2023-12-28T06:06:52;12.30;99.90
35603;DHT22;21725;50.836;4.368;2023-12-28T06:09:53;12.20;99.90
35603;DHT22;21725;50.836;4.368;2023-12-28T06:12:54;12.20;99.90
35603;DHT22;21725;50.836;4.368;2023-12-28T06:15:55;12.20;99.90
35603;DHT22;21725;50.836;4.368;2023-12-28T06:18:55;12.10;99.90
35603;DHT22;21725;50.836;4.368;2023-12-28T06:21:56;12.10;99.90
35603;DHT22;21725;50.836;4.368;2023-12-28T06:24:58;12.10;99.90
35603;DHT22;21725;50.836;4.368;2023-12-28T06:27:59;12.10;99.90
35603;DHT22;21725;50.836;4.368;2023-12-28T06:31:00;12.00;99.90
35603;DHT22;21725;50.836;4.368;2023-12-28T06:34:02;12.00;99.90
35603;DHT22;21725;50.836;4.368;2023-12-28T06:37:03;11.90;99.90
35603;DHT22;21725;50.836;4.368;2023-12-28T06:40:04;11.90;99.90
35603;DHT22;21725;50.836;4.368;2023-12-28T06:43:05;11.90;99.90
35603;DHT22;21725;50.836;4.368;2023-12-28T06:46:06;11.80;99.90
35603;DHT22;21725;50.836;4.368;2023-12-28T06:49:07;11.80;99.90
35603;DHT22;21725;50.836;4.368;2023-12-28T06:52:08;11.80;99.90
35603;DHT22;21725;50.836;4.368;2023-12-28T06:55:08;11.80;99.90
35603;DHT22;21725;50.836;4.368;2023-12-28T06:58:09;11.70;99.90
35603;DHT22;21725;50.836;4.368;2023-12-28T07:01:10;11.80;99.90
35603;DHT22;21725;50.836;4.368;2023-12-28T07:04:11;11.80;99.90
35603;DHT22;21725;50.836;4.368;2023-12-28T07:07:12;11.90;99.90
35603;DHT22;21725;50.836;4.368;2023-12-28T07:10:13;11.90;99.90
35603;DHT22;21725;50.836;4.368;2023-12-28T07:13:14;12.00;99.90
35603;DHT22;21725;50.836;4.368;2023-12-28T07:16:15;11.90;99.90
35603;DHT22;21725;50.836;4.368;2023-12-28T07:19:16;12.00;99.90
35603;DHT22;21725;50.836;4.368;2023-12-28T07:22:17;11.90;99.90
35603;DHT22;21725;50.836;4.368;2023-12-28T07:25:17;11.80;99.90
35603;DHT22;21725;50.836;4.368;2023-12-28T07:28:18;11.90;99.90
35603;DHT22;21725;50.836;4.368;2023-12-28T07:31:23;12.00;99.90
35603;DHT22;21725;50.836;4.368;2023-12-28T07:34:24;12.00;99.90
35603;DHT22;21725;50.836;4.368;2023-12-28T07:37:24;12.00;99.90
35603;DHT22;21725;50.836;4.368;2023-12-28T07:40:26;11.90;99.90
35603;DHT22;21725;50.836;4.368;2023-12-28T07:43:26;11.80;99.90
35603;DHT22;21725;50.836;4.368;2023-12-28T07:46:27;11.90;99.90
35603;DHT22;21725;50.836;4.368;2023-12-28T07:49:30;12.00;99.90
35603;DHT22;21725;50.836;4.368;2023-12-28T07:52:31;11.90;99.90
35603;DHT22;21725;50.836;4.368;2023-12-28T07:55:31;11.90;99.90
35603;DHT22;21725;50.836;4.368;2023-12-28T07:58:32;11.90;99.90
35603;DHT22;21725;50.836;4.368;2023-12-28T08:01:33;11.90;99.90
35603;DHT22;21725;50.836;4.368;2023-12-28T08:04:34;11.90;99.90
35603;DHT22;21725;50.836;4.368;2023-12-28T08:07:34;11.80;99.90
35603;DHT22;21725;50.836;4.368;2023-12-28T08:10:35;11.80;99.90
35603;DHT22;21725;50.836;4.368;2023-12-28T08:13:36;11.80;99.90
35603;DHT22;21725;50.836;4.368;2023-12-28T08:16:37;11.80;99.90
35603;DHT22;21725;50.836;4.368;2023-12-28T08:19:38;11.80;99.90
35603;DHT22;21725;50.836;4.368;2023-12-28T08:22:38;11.80;99.90
35603;DHT22;21725;50.836;4.368;2023-12-28T08:25:39;12.00;99.90
35603;DHT22;21725;50.836;4.368;2023-12-28T08:28:40;12.00;99.90
35603;DHT22;21725;50.836;4.368;2023-12-28T08:31:41;12.00;99.90
35603;DHT22;21725;50.836;4.368;2023-12-28T08:34:41;12.10;99.90
35603;DHT22;21725;50.836;4.368;2023-12-28T08:37:42;12.20;99.90
35603;DHT22;21725;50.836;4.368;2023-12-28T08:40:43;12.20;99.90
35603;DHT22;21725;50.836;4.368;2023-12-28T08:43:45;12.30;99.90
35603;DHT22;21725;50.836;4.368;2023-12-28T08:46:45;12.40;99.90
35603;DHT22;21725;50.836;4.368;2023-12-28T08:49:46;12.40;99.90
35603;DHT22;21725;50.836;4.368;2023-12-28T08:52:47;12.40;99.90
35603;DHT22;21725;50.836;4.368;2023-12-28T08:55:48;12.20;99.90
35603;DHT22;21725;50.836;4.368;2023-12-28T08:58:49;12.10;99.90
35603;DHT22;21725;50.836;4.368;2023-12-28T09:01:54;12.20;99.90
35603;DHT22;21725;50.836;4.368;2023-12-28T09:04:55;12.20;99.90
35603;DHT22;21725;50.836;4.368;2023-12-28T09:07:56;12.10;99.90
35603;DHT22;21725;50.836;4.368;2023-12-28T09:10:56;12.10;99.90
35603;DHT22;21725;50.836;4.368;2023-12-28T09:13:57;12.20;99.90
35603;DHT22;21725;50.836;4.368;2023-12-28T09:16:58;12.10;99.90
35603;DHT22;21725;50.836;4.368;2023-12-28T09:19:59;12.10;99.90
35603;DHT22;21725;50.836;4.368;2023-12-28T09:23:01;12.30;99.90
35603;DHT22;21725;50.836;4.368;2023-12-28T09:26:03;12.10;99.90
35603;DHT22;21725;50.836;4.368;2023-12-28T09:29:04;12.30;99.90
35603;DHT22;21725;50.836;4.368;2023-12-28T09:32:05;12.30;99.90
35603;DHT22;21725;50.836;4.368;2023-12-28T09:35:07;12.40;99.90
35603;DHT22;21725;50.836;4.368;2023-12-28T09:38:07;12.40;99.90
35603;DHT22;21725;50.836;4.368;2023-12-28T09:41:12;12.30;99.90
35603;DHT22;21725;50.836;4.368;2023-12-28T09:44:17;12.30;99.90
35603;DHT22;21725;50.836;4.368;2023-12-28T09:47:19;12.40;99.90
35603;DHT22;21725;50.836;4.368;2023-12-28T09:50:21;12.40;99.90
35603;DHT22;21725;50.836;4.368;2023-12-28T09:53:25;12.40;99.90
35603;DHT22;21725;50.836;4.368;2023-12-28T09:56:26;12.40;99.90
35603;DHT22;21725;50.836;4.368;2023-12-28T09:59:27;12.70;99.90
35603;DHT22;21725;50.836;4.368;2023-12-28T10:02:29;12.50;99.90
35603;DHT22;21725;50.836;4.368;2023-12-28T10:05:30;12.50;99.90
35603;DHT22;21725;50.836;4.368;2023-12-28T10:08:31;12.60;99.90
35603;DHT22;21725;50.836;4.368;2023-12-28T10:11:32;12.70;99.90
35603;DHT22;21725;50.836;4.368;2023-12-28T10:14:33;12.90;99.90
35603;DHT22;21725;50.836;4.368;2023-12-28T10:17:34;13.00;99.90
35603;DHT22;21725;50.836;4.368;2023-12-28T10:20:37;12.80;99.90
35603;DHT22;21725;50.836;4.368;2023-12-28T10:23:38;12.80;99.90
35603;DHT22;21725;50.836;4.368;2023-12-28T10:26:39;12.80;99.90
35603;DHT22;21725;50.836;4.368;2023-12-28T10:29:39;12.90;99.90
35603;DHT22;21725;50.836;4.368;2023-12-28T10:32:40;13.00;99.90
35603;DHT22;21725;50.836;4.368;2023-12-28T10:35:42;13.10;99.90
35603;DHT22;21725;50.836;4.368;2023-12-28T10:38:45;13.00;99.90
35603;DHT22;21725;50.836;4.368;2023-12-28T10:41:49;12.80;99.90
35603;DHT22;21725;50.836;4.368;2023-12-28T10:44:53;12.90;99.90
35603;DHT22;21725;50.836;4.368;2023-12-28T10:48:09;12.70;99.90
35603;DHT22;21725;50.836;4.368;2023-12-28T10:51:10;12.50;99.90
35603;DHT22;21725;50.836;4.368;2023-12-28T10:54:50;12.40;99.90
35603;DHT22;21725;50.836;4.368;2023-12-28T10:58:10;12.30;99.90
35603;DHT22;21725;50.836;4.368;2023-12-28T11:01:22;12.60;99.90
35603;DHT22;21725;50.836;4.368;2023-12-28T11:04:37;12.90;99.90
35603;DHT22;21725;50.836;4.368;2023-12-28T11:07:43;13.10;99.90
35603;DHT22;21725;50.836;4.368;2023-12-28T11:10:44;13.00;99.90
35603;DHT22;21725;50.836;4.368;2023-12-28T11:13:46;12.90;99.90
35603;DHT22;21725;50.836;4.368;2023-12-28T11:16:48;12.90;99.90
35603;DHT22;21725;50.836;4.368;2023-12-28T11:19:50;13.00;99.90
35603;DHT22;21725;50.836;4.368;2023-12-28T11:22:52;13.20;99.90
35603;DHT22;21725;50.836;4.368;2023-12-28T11:25:53;13.10;99.90
35603;DHT22;21725;50.836;4.368;2023-12-28T11:29:04;12.90;99.90
35603;DHT22;21725;50.836;4.368;2023-12-28T11:32:05;12.80;99.90
35603;DHT22;21725;50.836;4.368;2023-12-28T11:35:10;12.90;99.90
35603;DHT22;21725;50.836;4.368;2023-12-28T11:38:12;12.80;99.90
35603;DHT22;21725;50.836;4.368;2023-12-28T11:41:16;13.00;99.90
35603;DHT22;21725;50.836;4.368;2023-12-28T11:44:18;13.10;99.90
35603;DHT22;21725;50.836;4.368;2023-12-28T11:50:23;13.40;99.90
35603;DHT22;21725;50.836;4.368;2023-12-28T11:53:24;13.50;99.90
35603;DHT22;21725;50.836;4.368;2023-12-28T11:56:25;13.50;99.90
35603;DHT22;21725;50.836;4.368;2023-12-28T11:59:26;13.60;99.90
35603;DHT22;21725;50.836;4.368;2023-12-28T12:02:27;13.50;99.90
35603;DHT22;21725;50.836;4.368;2023-12-28T12:05:28;13.30;99.90
35603;DHT22;21725;50.836;4.368;2023-12-28T12:08:28;13.10;99.90
35603;DHT22;21725;50.836;4.368;2023-12-28T12:11:29;13.10;99.90
35603;DHT22;21725;50.836;4.368;2023-12-28T12:14:31;13.20;99.90
35603;DHT22;21725;50.836;4.368;2023-12-28T12:17:32;13.20;99.90
35603;DHT22;21725;50.836;4.368;2023-12-28T12:20:33;13.10;99.90
35603;DHT22;21725;50.836;4.368;2023-12-28T12:23:34;13.30;99.90
35603;DHT22;21725;50.836;4.368;2023-12-28T12:26:35;13.30;99.90
35603;DHT22;21725;50.836;4.368;2023-12-28T12:29:36;13.40;99.90
35603;DHT22;21725;50.836;4.368;2023-12-28T12:32:37;13.60;99.90
35603;DHT22;21725;50.836;4.368;2023-12-28T12:35:43;13.50;99.90
35603;DHT22;21725;50.836;4.368;2023-12-28T12:38:44;13.40;99.90
35603;DHT22;21725;50.836;4.368;2023-12-28T12:41:46;13.00;99.90
35603;DHT22;21725;50.836;4.368;2023-12-28T12:44:47;13.20;99.90
35603;DHT22;21725;50.836;4.368;2023-12-28T12:47:48;13.20;99.90
35603;DHT22;21725;50.836;4.368;2023-12-28T12:50:49;13.40;99.90
35603;DHT22;21725;50.836;4.368;2023-12-28T12:53:50;13.30;99.90
35603;DHT22;21725;50.836;4.368;2023-12-28T12:56:51;13.40;99.90
35603;DHT22;21725;50.836;4.368;2023-12-28T12:59:53;13.40;99.90
35603;DHT22;21725;50.836;4.368;2023-12-28T13:02:54;13.50;99.90
35603;DHT22;21725;50.836;4.368;2023-12-28T13:05:57;13.30;99.90
35603;DHT22;21725;50.836;4.368;2023-12-28T13:08:57;13.10;99.90
35603;DHT22;21725;50.836;4.368;2023-12-28T13:11:58;13.20;99.90
35603;DHT22;21725;50.836;4.368;2023-12-28T13:14:59;13.20;99.90
35603;DHT22;21725;50.836;4.368;2023-12-28T13:18:00;13.00;99.90
35603;DHT22;21725;50.836;4.368;2023-12-28T13:21:01;12.90;99.90
35603;DHT22;21725;50.836;4.368;2023-12-28T13:24:02;12.80;99.90
35603;DHT22;21725;50.836;4.368;2023-12-28T13:27:03;12.80;99.90
35603;DHT22;21725;50.836;4.368;2023-12-28T13:30:05;12.80;99.90
35603;DHT22;21725;50.836;4.368;2023-12-28T13:33:06;13.10;99.90
35603;DHT22;21725;50.836;4.368;2023-12-28T13:36:07;13.20;99.90
35603;DHT22;21725;50.836;4.368;2023-12-28T13:39:08;13.30;99.90
35603;DHT22;21725;50.836;4.368;2023-12-28T13:42:11;13.10;99.90
35603;DHT22;21725;50.836;4.368;2023-12-28T13:45:12;12.50;99.90
35603;DHT22;21725;50.836;4.368;2023-12-28T13:48:13;13.40;99.90
35603;DHT22;21725;50.836;4.368;2023-12-28T13:51:14;13.30;99.90
35603;DHT22;21725;50.836;4.368;2023-12-28T13:54:14;13.30;99.90
35603;DHT22;21725;50.836;4.368;2023-12-28T13:57:15;13.30;99.90
35603;DHT22;21725;50.836;4.368;2023-12-28T14:00:16;13.30;99.90
35603;DHT22;21725;50.836;4.368;2023-12-28T14:03:17;13.30;99.90
35603;DHT22;21725;50.836;4.368;2023-12-28T14:06:18;13.50;99.90
35603;DHT22;21725;50.836;4.368;2023-12-28T14:09:19;13.50;99.90
35603;DHT22;21725;50.836;4.368;2023-12-28T14:12:21;13.40;99.90
35603;DHT22;21725;50.836;4.368;2023-12-28T14:15:22;13.30;99.90
35603;DHT22;21725;50.836;4.368;2023-12-28T14:18:23;13.40;99.90
35603;DHT22;21725;50.836;4.368;2023-12-28T14:21:24;13.30;99.90
35603;DHT22;21725;50.836;4.368;2023-12-28T14:24:25;13.30;99.90
35603;DHT22;21725;50.836;4.368;2023-12-28T14:27:29;13.20;99.90
35603;DHT22;21725;50.836;4.368;2023-12-28T14:30:30;13.10;99.90
35603;DHT22;21725;50.836;4.368;2023-12-28T14:33:31;13.10;99.90
35603;DHT22;21725;50.836;4.368;2023-12-28T14:36:34;13.10;99.90
35603;DHT22;21725;50.836;4.368;2023-12-28T14:39:36;13.10;99.90
35603;DHT22;21725;50.836;4.368;2023-12-28T14:42:38;13.00;99.90
35603;DHT22;21725;50.836;4.368;2023-12-28T14:45:39;13.00;99.90
35603;DHT22;21725;50.836;4.368;2023-12-28T14:48:40;13.10;99.90
35603;DHT22;21725;50.836;4.368;2023-12-28T14:51:41;13.10;99.90
35603;DHT22;21725;50.836;4.368;2023-12-28T14:54:41;13.00;99.90
35603;DHT22;21725;50.836;4.368;2023-12-28T14:57:43;13.10;99.90
35603;DHT22;21725;50.836;4.368;2023-12-28T15:00:45;13.10;99.90
35603;DHT22;21725;50.836;4.368;2023-12-28T15:03:46;13.10;99.90
35603;DHT22;21725;50.836;4.368;2023-12-28T15:06:47;13.00;99.90
35603;DHT22;21725;50.836;4.368;2023-12-28T15:09:47;13.10;99.90
35603;DHT22;21725;50.836;4.368;2023-12-28T15:12:49;12.90;99.90
35603;DHT22;21725;50.836;4.368;2023-12-28T15:15:51;12.90;99.90
35603;DHT22;21725;50.836;4.368;2023-12-28T15:18:52;12.80;99.90
35603;DHT22;21725;50.836;4.368;2023-12-28T15:21:53;12.90;99.90
35603;DHT22;21725;50.836;4.368;2023-12-28T15:24:53;13.00;99.90
35603;DHT22;21725;50.836;4.368;2023-12-28T15:27:55;12.80;99.90
35603;DHT22;21725;50.836;4.368;2023-12-28T15:30:55;12.80;99.90
35603;DHT22;21725;50.836;4.368;2023-12-28T15:33:56;12.80;99.90
35603;DHT22;21725;50.836;4.368;2023-12-28T15:36:57;12.70;99.90
35603;DHT22;21725;50.836;4.368;2023-12-28T15:39:59;12.80;99.90
35603;DHT22;21725;50.836;4.368;2023-12-28T15:43:00;12.90;99.90
35603;DHT22;21725;50.836;4.368;2023-12-28T15:46:01;13.00;99.90
35603;DHT22;21725;50.836;4.368;2023-12-28T15:49:01;13.10;99.90
35603;DHT22;21725;50.836;4.368;2023-12-28T15:52:02;13.00;99.90
35603;DHT22;21725;50.836;4.368;2023-12-28T15:55:03;13.00;99.90
35603;DHT22;21725;50.836;4.368;2023-12-28T15:58:04;13.00;99.90
35603;DHT22;21725;50.836;4.368;2023-12-28T16:01:05;12.90;99.90
35603;DHT22;21725;50.836;4.368;2023-12-28T16:04:06;12.90;99.90
35603;DHT22;21725;50.836;4.368;2023-12-28T16:07:07;12.80;99.90
35603;DHT22;21725;50.836;4.368;2023-12-28T16:10:08;12.90;99.90
35603;DHT22;21725;50.836;4.368;2023-12-28T16:13:09;12.80;99.90
35603;DHT22;21725;50.836;4.368;2023-12-28T16:16:10;12.80;99.90
35603;DHT22;21725;50.836;4.368;2023-12-28T16:19:12;12.70;99.90
35603;DHT22;21725;50.836;4.368;2023-12-28T16:22:13;12.80;99.90
35603;DHT22;21725;50.836;4.368;2023-12-28T16:25:14;12.90;99.90
35603;DHT22;21725;50.836;4.368;2023-12-28T16:28:14;12.90;99.90
35603;DHT22;21725;50.836;4.368;2023-12-28T16:31:15;12.80;99.90
35603;DHT22;21725;50.836;4.368;2023-12-28T16:34:16;12.90;99.90
35603;DHT22;21725;50.836;4.368;2023-12-28T16:37:17;13.00;99.90
35603;DHT22;21725;50.836;4.368;2023-12-28T16:40:18;12.80;99.90
35603;DHT22;21725;50.836;4.368;2023-12-28T16:43:19;12.80;99.90
35603;DHT22;21725;50.836;4.368;2023-12-28T16:46:20;13.10;99.90
35603;DHT22;21725;50.836;4.368;2023-12-28T16:49:20;13.00;99.90
35603;DHT22;21725;50.836;4.368;2023-12-28T16:52:21;13.00;99.90
35603;DHT22;21725;50.836;4.368;2023-12-28T16:55:24;13.10;99.90
35603;DHT22;21725;50.836;4.368;2023-12-28T16:58:27;13.20;99.90
35603;DHT22;21725;50.836;4.368;2023-12-28T17:01:28;12.70;99.90
35603;DHT22;21725;50.836;4.368;2023-12-28T17:04:29;13.30;99.90
35603;DHT22;21725;50.836;4.368;2023-12-28T17:07:30;13.30;99.90
35603;DHT22;21725;50.836;4.368;2023-12-28T17:10:31;13.50;99.90
35603;DHT22;21725;50.836;4.368;2023-12-28T17:13:32;13.60;99.90
35603;DHT22;21725;50.836;4.368;2023-12-28T17:16:33;13.50;99.90
35603;DHT22;21725;50.836;4.368;2023-12-28T17:19:34;13.50;99.90
35603;DHT22;21725;50.836;4.368;2023-12-28T17:23:26;13.60;99.90
35603;DHT22;21725;50.836;4.368;2023-12-28T17:26:22;13.30;99.90
35603;DHT22;21725;50.836;4.368;2023-12-28T17:29:25;13.10;99.90
35603;DHT22;21725;50.836;4.368;2023-12-28T17:32:32;13.10;99.90
35603;DHT22;21725;50.836;4.368;2023-12-28T17:35:34;13.10;99.90
35603;DHT22;21725;50.836;4.368;2023-12-28T17:38:35;13.10;99.90
35603;DHT22;21725;50.836;4.368;2023-12-28T17:41:37;13.00;99.90
35603;DHT22;21725;50.836;4.368;2023-12-28T17:44:41;12.90;99.90
35603;DHT22;21725;50.836;4.368;2023-12-28T17:48:02;12.90;99.90
35603;DHT22;21725;50.836;4.368;2023-12-28T17:51:05;13.00;99.90
35603;DHT22;21725;50.836;4.368;2023-12-28T17:54:06;13.00;99.90
35603;DHT22;21725;50.836;4.368;2023-12-28T17:57:07;12.90;99.90
35603;DHT22;21725;50.836;4.368;2023-12-28T18:00:08;12.80;99.90
35603;DHT22;21725;50.836;4.368;2023-12-28T18:03:09;13.00;99.90
35603;DHT22;21725;50.836;4.368;2023-12-28T18:06:10;12.90;99.90
35603;DHT22;21725;50.836;4.368;2023-12-28T18:09:10;12.80;99.90
35603;DHT22;21725;50.836;4.368;2023-12-28T18:12:11;12.70;99.90
35603;DHT22;21725;50.836;4.368;2023-12-28T18:15:12;12.90;99.90
35603;DHT22;21725;50.836;4.368;2023-12-28T18:18:13;12.90;99.90
35603;DHT22;21725;50.836;4.368;2023-12-28T18:21:15;13.10;99.90
35603;DHT22;21725;50.836;4.368;2023-12-28T18:24:16;13.00;99.90
35603;DHT22;21725;50.836;4.368;2023-12-28T18:27:16;13.10;99.90
35603;DHT22;21725;50.836;4.368;2023-12-28T18:30:17;13.10;99.90
35603;DHT22;21725;50.836;4.368;2023-12-28T18:33:18;13.10;99.90
35603;DHT22;21725;50.836;4.368;2023-12-28T18:36:22;13.30;99.90
35603;DHT22;21725;50.836;4.368;2023-12-28T18:39:23;13.20;99.90
35603;DHT22;21725;50.836;4.368;2023-12-28T18:42:27;13.10;99.90
35603;DHT22;21725;50.836;4.368;2023-12-28T18:45:28;13.00;99.90
35603;DHT22;21725;50.836;4.368;2023-12-28T18:48:29;12.80;99.90
35603;DHT22;21725;50.836;4.368;2023-12-28T18:51:29;12.90;99.90
35603;DHT22;21725;50.836;4.368;2023-12-28T18:54:30;12.90;99.90
35603;DHT22;21725;50.836;4.368;2023-12-28T18:57:31;12.80;99.90
35603;DHT22;21725;50.836;4.368;2023-12-28T19:00:32;12.70;99.90
35603;DHT22;21725;50.836;4.368;2023-12-28T19:03:34;12.70;99.90
35603;DHT22;21725;50.836;4.368;2023-12-28T19:06:35;12.80;99.90
35603;DHT22;21725;50.836;4.368;2023-12-28T19:09:38;12.90;99.90